Time;durP1;ratioP1;P1;durP2;ratioP2;P2;SDS_P1;SDS_P2;PMS_P1;PMS_P2;Temp;Humidity;BMP_temperature;BMP_pressure;BME280_temperature;BME280_humidity;BME280_pressure;Samples;Min_cycle;Max_cycle;Signal;HPM_P1;HPM_P2
2021/05/29 00:02:13;;;;;;;11.83;10.63;;;;;;;10.92;70.89;99105.95;2093294;85;21087;-78
2021/05/29 00:05:14;;;;;;;13.80;11.30;;;;;;;10.89;71.30;99111.56;2093199;85;20972;-80
2021/05/29 00:08:15;;;;;;;14.53;12.00;;;;;;;10.86;71.08;99108.48;2093283;82;21419;-80
2021/05/29 00:11:16;;;;;;;13.73;11.30;;;;;;;10.88;71.18;99109.38;2093488;85;21035;-80
2021/05/29 00:14:17;;;;;;;12.33;11.00;;;;;;;10.92;71.12;99116.83;2093172;85;20956;-80
2021/05/29 00:17:19;;;;;;;13.03;10.60;;;;;;;10.91;71.18;99112.47;2093451;85;21098;-81
2021/05/29 00:20:20;;;;;;;15.00;10.97;;;;;;;10.89;71.33;99112.88;2093384;85;21356;-79
2021/05/29 00:23:21;;;;;;;13.10;11.80;;;;;;;10.87;71.31;99121.11;2093611;85;21055;-79
2021/05/29 00:26:22;;;;;;;13.37;11.97;;;;;;;10.87;71.57;99118.50;2093555;85;21316;-80
2021/05/29 00:29:23;;;;;;;14.87;12.50;;;;;;;10.84;71.65;99119.33;2083499;85;21025;-79
2021/05/29 00:32:24;;;;;;;15.97;11.27;;;;;;;10.81;71.65;99116.25;2082565;85;21361;-79
2021/05/29 00:35:26;;;;;;;12.40;10.87;;;;;;;10.78;72.36;99120.12;2082485;85;21063;-80
2021/05/29 00:38:27;;;;;;;12.60;11.30;;;;;;;10.76;72.04;99121.83;2082577;84;21012;-79
2021/05/29 00:41:28;;;;;;;12.50;11.07;;;;;;;10.77;71.90;99118.36;2082553;86;21395;-79
2021/05/29 00:44:29;;;;;;;12.30;11.00;;;;;;;10.78;72.01;99117.50;2082483;86;20972;-79
2021/05/29 00:47:30;;;;;;;14.17;10.80;;;;;;;10.80;71.95;99120.14;2082632;86;21023;-79
2021/05/29 00:50:34;;;;;;;11.13;10.03;;;;;;;10.82;71.95;99120.61;2082696;85;20984;-79
2021/05/29 00:53:35;;;;;;;13.30;10.65;;;;;;;10.83;71.93;99118.45;2082661;85;20964;-78
2021/05/29 00:56:35;;;;;;;13.87;10.50;;;;;;;10.83;71.99;99108.01;2082586;86;21411;-79
2021/05/29 00:59:36;;;;;;;12.20;10.00;;;;;;;10.82;72.09;99112.78;2082582;86;20988;-80
2021/05/29 01:02:37;;;;;;;24.97;20.37;;;;;;;10.80;72.14;99109.27;2082525;86;20976;-79
2021/05/29 01:05:38;;;;;;;16.10;11.20;;;;;;;10.78;72.13;99109.67;2082420;86;21095;-80
2021/05/29 01:08:39;;;;;;;12.10;10.80;;;;;;;10.78;72.24;99109.67;2082657;84;21485;-79
2021/05/29 01:11:40;;;;;;;13.07;9.43;;;;;;;10.77;72.54;99117.05;2082831;86;21003;-79
2021/05/29 01:14:54;;;;;;;11.37;10.17;;;;;;;10.71;72.33;99116.96;2082589;85;20980;-80
2021/05/29 01:17:50;;;;;;;11.57;10.00;;;;;;;10.72;72.49;99113.92;2081746;86;21008;-81
2021/05/29 01:20:50;;;;;;;14.00;11.83;;;;;;;10.70;72.64;99113.90;2082732;85;21364;-82
2021/05/29 01:23:52;;;;;;;12.27;11.07;;;;;;;10.69;72.83;99116.06;2082514;85;20957;-80
2021/05/29 01:26:52;;;;;;;14.53;11.73;;;;;;;10.67;72.72;99109.06;2082618;86;21020;-79
2021/05/29 01:29:56;;;;;;;17.03;12.90;;;;;;;10.66;73.13;99107.30;2103478;85;21023;-82
2021/05/29 01:32:56;;;;;;;12.93;11.63;;;;;;;10.65;73.33;99110.77;2103363;85;20987;-80
2021/05/29 01:35:57;;;;;;;14.13;12.60;;;;;;;10.62;73.23;99107.68;2137426;83;20999;-80
2021/05/29 01:38:58;;;;;;;14.10;12.70;;;;;;;10.60;73.40;99118.52;2137499;82;21099;-81
2021/05/29 01:41:59;;;;;;;16.03;12.17;;;;;;;10.57;73.66;99114.56;2137392;83;21340;-79
2021/05/29 01:45:00;;;;;;;13.53;12.03;;;;;;;10.54;73.72;99111.91;2137413;83;21032;-81
2021/05/29 01:48:01;;;;;;;14.13;12.80;;;;;;;10.50;73.98;99113.58;2137311;83;20991;-80
2021/05/29 01:51:02;;;;;;;14.93;13.43;;;;;;;10.47;74.02;99116.57;2137455;83;21051;-79
2021/05/29 01:54:03;;;;;;;14.30;12.67;;;;;;;10.42;75.12;99119.53;2137420;83;21445;-79
2021/05/29 01:57:04;;;;;;;14.77;12.93;;;;;;;10.38;74.55;99115.95;2137489;83;21015;-80
2021/05/29 02:00:05;;;;;;;19.67;13.33;;;;;;;10.37;74.84;99117.23;2137530;83;21019;-82
2021/05/29 02:03:06;;;;;;;14.37;12.57;;;;;;;10.36;75.15;99122.00;2137439;83;21078;-80
2021/05/29 02:06:08;;;;;;;15.53;12.50;;;;;;;10.33;75.10;99117.61;2137583;83;21015;-82
2021/05/29 02:09:09;;;;;;;15.63;13.03;;;;;;;10.32;75.24;99119.77;2137537;83;21485;-83
2021/05/29 02:12:10;;;;;;;101.67;72.87;;;;;;;10.32;75.21;99114.98;2137586;83;21024;-81
2021/05/29 02:15:11;;;;;;;45.87;34.23;;;;;;;10.80;77.96;99105.78;2137428;83;21028;-80
2021/05/29 02:18:12;;;;;;;18.37;15.57;;;;;;;12.27;73.95;99091.52;2137403;83;20995;-81
2021/05/29 02:21:13;;;;;;;14.13;12.63;;;;;;;11.94;71.90;99100.77;2137379;83;20991;-80
2021/05/29 02:24:14;;;;;;;15.73;11.87;;;;;;;11.49;71.75;99099.36;2137364;83;20987;-80
2021/05/29 02:27:15;;;;;;;12.43;10.93;;;;;;;11.16;72.13;99100.20;2136221;83;20987;-79
2021/05/29 02:30:16;;;;;;;11.97;10.77;;;;;;;10.97;72.76;99103.41;2076790;86;21022;-80
2021/05/29 02:33:17;;;;;;;14.10;11.90;;;;;;;10.83;72.98;99105.40;2076644;86;21013;-81
2021/05/29 02:36:18;;;;;;;13.27;11.80;;;;;;;10.75;73.34;99112.66;2076549;86;21514;-79
2021/05/29 02:39:19;;;;;;;13.43;12.03;;;;;;;10.66;73.64;99112.52;2076677;86;21002;-80
2021/05/29 02:42:20;;;;;;;13.40;11.13;;;;;;;10.56;73.71;99119.33;2076650;86;21057;-79
2021/05/29 02:45:21;;;;;;;17.43;11.77;;;;;;;10.51;73.90;99116.64;2076735;86;20990;-81
2021/05/29 02:48:22;;;;;;;14.50;11.57;;;;;;;10.51;74.13;99115.77;2076914;86;20982;-81
2021/05/29 02:51:23;;;;;;;12.20;11.00;;;;;;;10.47;74.25;99117.45;2076786;86;20954;-80
2021/05/29 02:54:24;;;;;;;12.73;11.47;;;;;;;10.44;74.38;99116.09;2076789;86;21524;-79
2021/05/29 02:57:25;;;;;;;12.83;11.50;;;;;;;10.41;74.41;99121.69;2076676;86;20982;-80
2021/05/29 03:00:26;;;;;;;13.33;12.03;;;;;;;10.40;74.58;99121.20;2076893;86;20966;-80
2021/05/29 03:03:27;;;;;;;13.87;12.07;;;;;;;10.37;74.60;99122.45;2076528;86;20969;-81
2021/05/29 03:06:28;;;;;;;13.70;11.73;;;;;;;10.32;74.93;99119.77;2076685;86;20962;-80
2021/05/29 03:09:29;;;;;;;13.83;12.43;;;;;;;10.29;74.92;99126.23;2076616;86;21425;-80
2021/05/29 03:12:31;;;;;;;13.13;11.87;;;;;;;10.27;75.28;99126.64;2076577;86;21469;-81
2021/05/29 03:15:32;;;;;;;15.60;12.87;;;;;;;10.25;75.15;99126.16;2076625;86;20998;-80
2021/05/29 03:18:33;;;;;;;15.77;13.73;;;;;;;10.21;75.33;99124.80;2076554;86;21002;-80
2021/05/29 03:21:34;;;;;;;16.00;14.30;;;;;;;10.21;75.43;99129.14;2076538;86;20966;-80
2021/05/29 03:24:35;;;;;;;16.30;14.00;;;;;;;10.21;75.58;99122.19;2076697;86;20989;-80
2021/05/29 03:27:36;;;;;;;15.50;13.33;;;;;;;10.23;75.63;99129.16;2078054;82;21034;-79
2021/05/29 03:30:40;;;;;;;18.53;13.50;;;;;;;10.21;75.85;99132.63;2124916;84;21401;-79
2021/05/29 03:33:41;;;;;;;20.33;12.90;;;;;;;10.23;75.76;99129.16;2124851;84;21074;-79
2021/05/29 03:36:42;;;;;;;15.03;13.57;;;;;;;10.27;76.08;99127.06;2124895;84;20985;-80
2021/05/29 03:39:43;;;;;;;14.10;12.60;;;;;;;10.23;75.80;99124.83;2125043;84;21038;-80
2021/05/29 03:42:44;;;;;;;14.90;13.33;;;;;;;10.27;75.83;99128.37;2124890;84;20989;-77
2021/05/29 03:45:45;;;;;;;17.03;13.73;;;;;;;10.27;76.17;99121.84;2124907;84;20982;-79
2021/05/29 03:48:46;;;;;;;14.77;12.77;;;;;;;10.24;76.03;99123.98;2124897;84;21041;-79
2021/05/29 03:51:47;;;;;;;16.70;13.23;;;;;;;10.23;75.88;99135.69;2169178;82;20961;-80
2021/05/29 03:54:48;;;;;;;14.30;12.90;;;;;;;10.25;75.87;99130.07;2169148;82;20938;-78
2021/05/29 03:57:49;;;;;;;13.90;12.60;;;;;;;10.23;76.31;99131.35;2169162;82;20982;-78
2021/05/29 04:00:50;;;;;;;16.33;13.20;;;;;;;10.17;75.82;99146.44;2169388;82;20993;-78
2021/05/29 04:03:51;;;;;;;13.10;11.80;;;;;;;10.20;76.46;99145.64;2169007;82;21373;-79
2021/05/29 04:06:52;;;;;;;15.00;12.23;;;;;;;10.23;75.83;99140.91;2169461;82;20958;-78
2021/05/29 04:09:53;;;;;;;14.50;12.47;;;;;;;10.29;75.93;99141.89;2169304;82;21413;-78
2021/05/29 04:12:54;;;;;;;15.37;12.40;;;;;;;10.39;75.79;99144.23;2121958;84;21132;-79
2021/05/29 04:15:55;;;;;;;14.13;12.10;;;;;;;10.46;75.33;99142.22;2110324;84;21356;-78
2021/05/29 04:18:56;;;;;;;20.40;13.23;;;;;;;10.53;75.48;99146.69;2122108;84;21352;-77
2021/05/29 04:21:59;;;;;;;13.33;11.93;;;;;;;10.65;75.30;99148.63;2121321;84;22405;-80
2021/05/29 04:25:00;;;;;;;13.70;12.30;;;;;;;10.72;75.07;99147.44;2121984;84;21075;-78
2021/05/29 04:28:01;;;;;;;16.27;11.60;;;;;;;10.80;74.87;99149.74;2119924;83;21039;-78
2021/05/29 04:31:02;;;;;;;17.83;13.00;;;;;;;10.82;74.95;99144.55;2076483;86;21386;-80
2021/05/29 04:34:03;;;;;;;13.20;11.80;;;;;;;11.00;74.50;99145.25;2076301;86;20997;-79
2021/05/29 04:37:04;;;;;;;13.40;12.00;;;;;;;10.97;74.48;99150.42;2076570;86;21426;-79
2021/05/29 04:40:05;;;;;;;13.90;11.50;;;;;;;10.90;74.18;99152.50;2076396;86;21098;-78
2021/05/29 04:43:06;;;;;;;13.67;11.23;;;;;;;10.81;74.26;99159.33;2076429;86;21708;-79
2021/05/29 04:46:07;;;;;;;12.63;11.37;;;;;;;10.75;74.41;99162.27;2076356;86;20947;-79
2021/05/29 04:49:08;;;;;;;14.33;11.77;;;;;;;10.68;74.26;99158.69;2076596;86;20994;-78
2021/05/29 04:52:09;;;;;;;15.77;12.57;;;;;;;10.68;74.41;99163.91;2076397;86;21023;-78
2021/05/29 04:55:10;;;;;;;13.77;11.90;;;;;;;10.63;74.54;99164.26;2076305;86;21105;-78
2021/05/29 04:58:11;;;;;;;15.63;12.07;;;;;;;10.64;74.79;99166.02;2076454;86;21013;-78
2021/05/29 05:01:12;;;;;;;15.90;11.00;;;;;;;10.58;74.69;99164.61;2076319;86;21485;-79
2021/05/29 05:04:13;;;;;;;12.23;10.90;;;;;;;10.52;75.47;99161.89;2076558;86;21086;-78
2021/05/29 05:07:14;;;;;;;14.27;11.03;;;;;;;10.53;75.52;99167.56;2076510;86;21418;-79
2021/05/29 05:10:15;;;;;;;12.37;10.67;;;;;;;10.49;75.08;99165.33;2076535;86;21026;-78
2021/05/29 05:13:16;;;;;;;12.47;10.63;;;;;;;10.43;75.93;99170.45;2076627;86;21050;-78
2021/05/29 05:16:16;;;;;;;12.50;10.17;;;;;;;10.30;75.91;99173.66;2076553;86;21022;-80
2021/05/29 05:19:18;;;;;;;13.30;10.20;;;;;;;10.20;76.05;99170.00;2076743;86;21481;-78
2021/05/29 05:22:19;;;;;;;13.57;11.30;;;;;;;10.16;76.36;99172.49;2076654;86;20993;-82
2021/05/29 05:25:20;;;;;;;13.17;10.07;;;;;;;10.18;76.92;99167.75;2076815;86;21077;-81
2021/05/29 05:28:22;;;;;;;15.03;11.10;;;;;;;10.24;77.16;99166.14;2080600;82;21070;-81
2021/05/29 05:31:23;;;;;;;14.30;10.53;;;;;;;10.26;77.37;99176.18;2125003;84;21362;-78
2021/05/29 05:34:24;;;;;;;16.93;12.10;;;;;;;10.30;77.42;99164.95;2124988;84;21034;-80
2021/05/29 05:37:25;;;;;;;13.20;10.83;;;;;;;10.34;77.07;99161.12;2125162;84;21062;-79
2021/05/29 05:40:26;;;;;;;14.83;10.63;;;;;;;10.51;76.98;99160.14;2124952;84;21021;-78
2021/05/29 05:43:27;;;;;;;12.03;10.83;;;;;;;10.71;76.86;99163.95;2125114;84;20978;-79
2021/05/29 05:46:31;;;;;;;11.28;10.08;;;;;;;10.90;76.18;99156.41;2125001;84;20990;-77
2021/05/29 05:49:32;;;;;;;12.10;9.17;;;;;;;11.12;76.11;99151.53;2125251;84;21038;-78
2021/05/29 05:52:33;;;;;;;10.63;9.53;;;;;;;11.31;75.76;99148.78;2124963;84;21014;-79
2021/05/29 05:55:34;;;;;;;12.93;10.97;;;;;;;11.37;75.18;99152.78;2125002;84;20970;-78
2021/05/29 05:58:34;;;;;;;10.75;9.68;;;;;;;11.42;74.67;99145.88;2124191;84;21061;-78
2021/05/29 06:01:35;;;;;;;12.28;11.05;;;;;;;11.51;75.01;99153.39;2124879;84;20986;-78
2021/05/29 06:04:36;;;;;;;15.38;10.25;;;;;;;11.59;74.55;99150.02;2169134;82;21010;-78
2021/05/29 06:07:37;;;;;;;11.93;10.43;;;;;;;11.63;74.39;99153.13;2169341;82;20962;-77
2021/05/29 06:10:38;;;;;;;9.80;8.83;;;;;;;11.72;74.56;99157.16;2169151;82;21049;-79
2021/05/29 06:20:05;;;;;;;11.50;9.03;;;;;;;11.83;74.06;99160.36;2169376;82;21053;-78
2021/05/29 06:23:06;;;;;;;14.15;9.25;;;;;;;11.96;73.81;99163.56;2169261;82;20992;-80
2021/05/29 06:26:07;;;;;;;11.55;8.93;;;;;;;12.18;73.29;99158.17;2169338;82;21326;-80
2021/05/29 06:29:08;;;;;;;11.55;8.85;;;;;;;12.32;72.89;99165.30;2169934;82;21002;-77
2021/05/29 06:32:12;;;;;;;11.35;9.13;;;;;;;12.49;72.76;99158.91;2171448;82;20986;-78
2021/05/29 06:35:12;;;;;;;10.18;9.13;;;;;;;12.67;71.79;99167.36;2171379;82;21083;-77
2021/05/29 06:38:14;;;;;;;12.88;9.68;;;;;;;12.81;71.39;99167.47;2150549;82;20997;-78
2021/05/29 06:41:16;;;;;;;11.08;8.70;;;;;;;12.89;70.97;99163.17;2170924;82;21136;-78
2021/05/29 06:44:17;;;;;;;9.75;8.13;;;;;;;12.93;70.40;99164.52;2171283;82;21061;-78
2021/05/29 06:47:18;;;;;;;10.70;8.10;;;;;;;12.93;69.73;99162.33;2171791;82;21013;-78
2021/05/29 06:50:19;;;;;;;9.60;7.70;;;;;;;12.95;69.07;99165.84;2171559;82;20982;-77
2021/05/29 06:53:45;;;;;;;9.13;8.23;;;;;;;13.04;69.72;99160.70;2171695;82;21108;-79
2021/05/29 06:59:42;;;;;;;10.82;7.40;;;;;;;13.14;68.59;99165.13;2172428;82;21073;-81
2021/05/29 07:02:43;;;;;;;8.33;7.37;;;;;;;13.34;68.89;99158.30;2172349;82;21085;-79
2021/05/29 07:05:44;;;;;;;10.32;7.75;;;;;;;13.63;68.30;99154.52;2172251;82;20986;-78
2021/05/29 07:08:44;;;;;;;8.33;6.58;;;;;;;14.26;67.02;99154.31;2172048;82;20977;-80
2021/05/29 07:11:45;;;;;;;7.67;5.25;;;;;;;14.43;65.09;99149.12;2172053;82;21069;-78
2021/05/29 07:14:46;;;;;;;7.00;6.10;;;;;;;14.61;63.48;99150.44;2171950;82;21365;-80
2021/05/29 07:17:53;;;;;;;5.42;4.70;;;;;;;14.77;60.48;99146.54;2171768;82;21424;-79
2021/05/29 07:20:50;;;;;;;5.22;4.47;;;;;;;14.76;60.77;99148.29;2170866;82;21085;-78
2021/05/29 07:23:51;;;;;;;7.85;4.75;;;;;;;14.63;58.79;99155.27;2171638;82;20986;-80
2021/05/29 07:26:53;;;;;;;4.75;4.17;;;;;;;14.50;61.39;99153.50;2171671;82;21338;-78
2021/05/29 07:29:54;;;;;;;5.35;3.75;;;;;;;14.42;60.00;99153.93;2174596;82;21057;-79
2021/05/29 07:32:55;;;;;;;4.62;4.22;;;;;;;14.42;60.42;99157.88;2178598;82;20969;-78
2021/05/29 07:35:56;;;;;;;7.83;4.50;;;;;;;14.55;61.11;99159.64;2178845;82;20960;-79
2021/05/29 07:38:57;;;;;;;6.28;4.20;;;;;;;14.73;59.88;99152.64;2178601;82;21001;-79
2021/05/29 07:41:58;;;;;;;5.60;4.08;;;;;;;14.79;59.75;99157.48;2178603;82;21065;-79
2021/05/29 07:44:59;;;;;;;7.67;4.67;;;;;;;14.84;58.98;99158.80;2178684;82;20993;-81
2021/05/29 07:48:00;;;;;;;7.65;4.25;;;;;;;14.96;59.06;99154.41;2178647;82;21009;-79
2021/05/29 07:51:02;;;;;;;5.33;4.25;;;;;;;15.16;58.41;99162.27;2178828;82;20957;-78
2021/05/29 07:54:03;;;;;;;6.33;3.60;;;;;;;15.20;57.96;99160.08;2178749;82;21073;-78
2021/05/29 07:57:05;;;;;;;3.52;2.92;;;;;;;15.29;56.15;99157.43;2178690;82;20996;-79
2021/05/29 08:00:06;;;;;;;9.85;3.05;;;;;;;15.28;55.31;99156.99;2178938;82;21013;-78
2021/05/29 08:03:07;;;;;;;3.40;2.42;;;;;;;15.23;55.25;99158.76;2178564;82;20966;-78
2021/05/29 08:06:12;;;;;;;2.90;2.70;;;;;;;15.27;53.78;99153.92;2178931;82;20938;-79
2021/05/29 08:09:10;;;;;;;4.67;3.12;;;;;;;15.26;52.78;99150.86;2178583;82;21035;-79
2021/05/29 08:12:11;;;;;;;3.67;2.90;;;;;;;15.55;54.64;99144.20;2179194;82;21044;-79
2021/05/29 08:15:12;;;;;;;9.53;2.67;;;;;;;15.55;54.64;99144.20;2179390;82;21001;-80
2021/05/29 08:18:17;;;;;;;3.35;3.05;;;;;;;15.67;53.53;99139.41;2179377;82;21025;-79
2021/05/29 08:21:16;;;;;;;3.33;3.10;;;;;;;15.90;52.90;99134.91;2178674;82;20941;-79
2021/05/29 08:24:17;;;;;;;6.97;3.58;;;;;;;15.97;52.80;99144.09;2178618;82;20973;-79
2021/05/29 08:27:18;;;;;;;7.12;3.95;;;;;;;15.90;54.16;99137.55;2178689;82;20986;-79
2021/05/29 08:30:19;;;;;;;4.10;3.72;;;;;;;16.07;54.28;99137.89;2175502;82;21033;-79
2021/05/29 08:33:21;;;;;;;3.40;2.75;;;;;;;16.29;52.25;99133.38;2171639;82;21516;-79
2021/05/29 08:36:21;;;;;;;3.42;2.60;;;;;;;16.35;51.21;99134.20;2171869;82;21061;-79
2021/05/29 08:39:22;;;;;;;3.90;2.20;;;;;;;16.37;48.70;99140.34;2171572;82;21061;-78
2021/05/29 08:42:23;;;;;;;3.90;3.05;;;;;;;16.70;49.70;99151.59;2171666;82;21046;-80
2021/05/29 08:45:25;;;;;;;2.80;2.60;;;;;;;17.26;46.75;99131.73;2171852;82;21061;-79
2021/05/29 08:48:25;;;;;;;3.50;2.33;;;;;;;17.65;46.75;99127.80;2172194;82;20993;-80
2021/05/29 08:51:27;;;;;;;2.35;2.15;;;;;;;17.68;44.71;99133.95;2171976;82;21050;-79
2021/05/29 08:54:27;;;;;;;2.77;1.85;;;;;;;17.31;46.40;99124.20;2171956;82;20961;-80
2021/05/29 08:57:28;;;;;;;3.15;2.90;;;;;;;17.23;45.49;99127.36;2171737;82;21010;-81
2021/05/29 09:00:29;;;;;;;2.95;2.58;;;;;;;17.01;46.84;99133.30;2171923;82;21017;-80
2021/05/29 09:03:30;;;;;;;5.67;2.50;;;;;;;16.63;47.66;99134.03;2171830;82;21006;-80
2021/05/29 09:06:31;;;;;;;3.00;2.70;;;;;;;16.37;46.75;99142.97;2172105;82;20955;-81
2021/05/29 09:09:32;;;;;;;2.60;2.40;;;;;;;16.30;47.54;99143.90;2172208;82;21033;-79
2021/05/29 09:12:33;;;;;;;4.62;2.60;;;;;;;16.81;47.38;99147.97;2172037;82;21033;-79
2021/05/29 09:15:34;;;;;;;2.47;2.27;;;;;;;16.81;47.38;99147.97;2171960;82;21069;-78
2021/05/29 09:18:35;;;;;;;9.63;2.90;;;;;;;17.19;47.67;99141.03;2172063;82;21016;-79
2021/05/29 09:21:37;;;;;;;3.02;2.50;;;;;;;17.38;45.27;99132.95;2172025;82;21061;-79
2021/05/29 09:24:38;;;;;;;4.22;2.70;;;;;;;17.30;45.26;99134.31;2171839;82;21037;-79
2021/05/29 09:27:39;;;;;;;2.50;2.30;;;;;;;17.03;46.71;99142.06;2172016;82;21032;-81
2021/05/29 09:30:40;;;;;;;2.42;2.22;;;;;;;16.98;46.55;99139.04;2171941;82;21152;-79
2021/05/29 09:33:42;;;;;;;2.70;2.50;;;;;;;17.20;46.58;99137.50;2171963;82;21109;-80
2021/05/29 09:36:42;;;;;;;2.67;2.20;;;;;;;17.22;46.63;99133.97;2171941;82;21334;-79
2021/05/29 09:39:43;;;;;;;2.62;2.42;;;;;;;17.32;45.56;99137.81;2172059;82;21315;-79
2021/05/29 09:42:44;;;;;;;4.55;2.52;;;;;;;17.17;46.09;99132.25;2171869;82;21385;-79
2021/05/29 09:45:46;;;;;;;3.05;2.00;;;;;;;17.06;46.55;99139.84;2171849;82;20954;-78
2021/05/29 09:48:49;;;;;;;2.10;1.90;;;;;;;17.16;43.81;99137.09;2172106;82;21081;-80
2021/05/29 09:51:49;;;;;;;3.77;3.05;;;;;;;17.42;44.46;99130.70;2171722;82;21053;-78
2021/05/29 09:54:50;;;;;;;1.70;1.60;;;;;;;17.22;44.70;99126.05;2171942;82;21000;-79
2021/05/29 09:57:52;;;;;;;2.37;1.80;;;;;;;16.95;44.66;99126.76;2171874;82;21497;-83
2021/05/29 10:00:53;;;;;;;1.77;1.67;;;;;;;17.24;44.34;99137.02;2172302;82;21021;-79
2021/05/29 10:03:54;;;;;;;1.35;1.27;;;;;;;17.37;43.49;99121.52;2171877;82;20980;-79
2021/05/29 10:06:54;;;;;;;1.50;1.40;;;;;;;17.48;43.96;99121.40;2172098;82;20946;-79
2021/05/29 10:09:55;;;;;;;2.52;1.40;;;;;;;17.68;42.06;99119.88;2171908;82;21350;-80
2021/05/29 10:12:57;;;;;;;1.72;1.40;;;;;;;17.98;40.81;99124.76;2171649;82;21080;-80
2021/05/29 10:15:58;;;;;;;3.08;1.20;;;;;;;17.83;41.40;99127.60;2171833;82;21386;-79
2021/05/29 10:19:01;;;;;;;1.70;1.60;;;;;;;16.88;42.84;99137.80;2171973;82;20994;-82
2021/05/29 10:22:02;;;;;;;1.50;1.40;;;;;;;16.98;43.52;99130.69;2171789;82;21093;-80
2021/05/29 10:25:05;;;;;;;1.65;1.55;;;;;;;17.25;43.42;99123.38;2172044;82;21382;-80
2021/05/29 10:28:06;;;;;;;1.87;1.70;;;;;;;17.47;41.74;99114.38;2172031;82;21081;-81
2021/05/29 10:31:07;;;;;;;2.10;1.07;;;;;;;17.63;39.93;99119.02;2175519;82;21449;-80
2021/05/29 10:34:09;;;;;;;1.52;1.12;;;;;;;17.76;39.16;99114.92;2178743;82;21456;-80
2021/05/29 10:37:10;;;;;;;2.05;1.35;;;;;;;18.05;39.93;99116.30;2178615;82;21404;-80
2021/05/29 10:40:10;;;;;;;1.32;1.22;;;;;;;17.85;40.54;99126.27;2178757;82;21009;-81
2021/05/29 10:43:15;;;;;;;1.87;1.40;;;;;;;17.85;40.54;99126.27;2178819;82;21056;-80
2021/05/29 10:46:14;;;;;;;1.40;1.30;;;;;;;17.36;40.84;99123.73;2178189;82;20973;-79
2021/05/29 10:49:15;;;;;;;1.62;1.52;;;;;;;17.43;40.76;99137.28;2178692;82;20949;-80
2021/05/29 10:52:16;;;;;;;2.87;1.40;;;;;;;17.80;39.38;99119.27;2178870;82;20933;-80
2021/05/29 10:55:17;;;;;;;1.65;1.45;;;;;;;18.28;39.41;99127.45;2178395;82;21377;-78
2021/05/29 10:58:18;;;;;;;3.20;1.50;;;;;;;18.45;39.12;99118.81;2178455;82;21092;-78
2021/05/29 11:01:19;;;;;;;2.52;1.72;;;;;;;17.88;39.73;99128.41;2178353;82;21012;-80
2021/05/29 11:04:22;;;;;;;2.72;1.82;;;;;;;17.33;41.87;99130.33;2178699;82;21009;-80
2021/05/29 11:07:23;;;;;;;3.77;1.50;;;;;;;16.94;41.85;99123.69;2179032;82;21037;-80
2021/05/29 11:10:24;;;;;;;1.40;1.30;;;;;;;17.16;41.83;99121.72;2178798;82;21369;-80
2021/05/29 11:13:25;;;;;;;2.42;1.50;;;;;;;17.10;41.49;99123.09;2178877;82;21053;-80
2021/05/29 11:16:26;;;;;;;2.12;1.42;;;;;;;17.41;42.42;99106.08;2178937;82;21001;-78
2021/05/29 11:19:27;;;;;;;1.47;1.37;;;;;;;17.87;39.32;99109.50;2178803;82;21021;-81
2021/05/29 11:22:28;;;;;;;2.70;1.32;;;;;;;17.93;40.13;99109.87;2178800;82;21045;-80
2021/05/29 11:25:29;;;;;;;2.72;1.65;;;;;;;17.52;39.14;99109.91;2178453;82;21373;-80
2021/05/29 11:28:30;;;;;;;1.90;1.50;;;;;;;17.22;39.15;99124.29;2178867;82;20978;-79
2021/05/29 11:31:31;;;;;;;1.32;1.20;;;;;;;17.24;41.17;99104.05;2178837;82;21757;-80
2021/05/29 11:34:32;;;;;;;2.00;1.40;;;;;;;18.09;39.44;99097.75;2178477;82;21136;-80
2021/05/29 11:37:33;;;;;;;2.65;1.80;;;;;;;18.52;38.70;99094.48;2178845;82;21010;-80
2021/05/29 11:40:34;;;;;;;4.87;1.25;;;;;;;18.53;39.43;99088.74;2178632;82;20958;-80
2021/05/29 11:43:35;;;;;;;1.40;1.00;;;;;;;18.74;38.13;99090.61;2178523;82;21436;-81
2021/05/29 11:46:36;;;;;;;1.00;1.00;;;;;;;18.98;36.96;99095.92;2178818;82;21021;-80
2021/05/29 11:49:37;;;;;;;1.47;1.00;;;;;;;19.13;37.00;99081.56;2178976;82;21368;-79
2021/05/29 11:52:38;;;;;;;1.15;1.15;;;;;;;19.18;35.35;99081.03;2178843;82;21351;-80
2021/05/29 11:55:39;;;;;;;1.67;0.90;;;;;;;18.73;36.24;99078.29;2178697;82;21408;-80
2021/05/29 11:58:40;;;;;;;1.52;1.15;;;;;;;18.17;37.93;99078.27;2178714;82;21037;-80
2021/05/29 12:01:42;;;;;;;4.87;1.80;;;;;;;17.96;38.58;99071.53;2178479;82;21350;-81
2021/05/29 12:04:43;;;;;;;1.12;0.98;;;;;;;17.41;38.16;99077.05;2178684;82;21072;-82
2021/05/29 12:07:44;;;;;;;2.15;1.50;;;;;;;17.82;37.72;99071.72;2179284;82;21005;-81
2021/05/29 12:10:46;;;;;;;1.42;1.32;;;;;;;18.25;38.15;99074.64;2178965;82;21464;-80
2021/05/29 12:13:46;;;;;;;2.05;1.37;;;;;;;18.64;36.64;99057.30;2178649;82;21064;-80
2021/05/29 12:16:47;;;;;;;1.98;1.07;;;;;;;18.91;36.42;99063.86;2178694;82;21013;-81
2021/05/29 12:19:51;;;;;;;2.35;1.12;;;;;;;18.55;35.74;99065.80;2178765;82;21351;-79
2021/05/29 12:22:51;;;;;;;1.60;1.00;;;;;;;18.67;36.74;99057.24;2178506;82;21365;-80
2021/05/29 12:25:52;;;;;;;1.35;0.95;;;;;;;18.98;35.67;99054.91;2178723;82;20962;-80
2021/05/29 12:28:53;;;;;;;1.10;0.93;;;;;;;19.52;35.10;99053.89;2178678;82;21481;-80
2021/05/29 12:31:54;;;;;;;0.90;0.90;;;;;;;19.60;33.72;99049.34;2174231;82;21022;-79
2021/05/29 12:34:55;;;;;;;1.12;1.00;;;;;;;19.58;33.59;99046.72;2171780;82;21045;-80
2021/05/29 12:37:56;;;;;;;0.80;0.80;;;;;;;19.79;33.56;99044.52;2171841;82;21428;-80
2021/05/29 12:40:57;;;;;;;1.25;1.10;;;;;;;19.91;33.68;99042.91;2171861;82;21026;-80
2021/05/29 12:43:58;;;;;;;0.85;0.85;;;;;;;19.84;33.40;99046.16;2171787;82;21414;-79
2021/05/29 12:46:59;;;;;;;1.40;1.30;;;;;;;19.79;33.29;99048.48;2171916;82;21030;-81
2021/05/29 12:50:02;;;;;;;0.80;0.80;;;;;;;19.73;33.56;99046.39;2171797;82;21453;-79
2021/05/29 12:53:03;;;;;;;1.20;1.10;;;;;;;19.61;34.05;99044.01;2171555;82;20958;-79
2021/05/29 12:56:04;;;;;;;2.58;1.05;;;;;;;19.67;34.13;99038.58;2171689;82;21069;-79
2021/05/29 12:59:05;;;;;;;1.37;0.88;;;;;;;19.62;31.93;99043.10;2171720;82;21468;-79
2021/05/29 13:08:58;;;;;;;1.57;0.88;;;;;;;19.03;33.34;99054.83;2171720;82;20954;-80
2021/05/29 13:11:45;;;;;;;2.83;1.10;;;;;;;18.46;34.22;99055.80;2169150;81;21113;-79
2021/05/29 13:14:46;;;;;;;2.45;1.10;;;;;;;18.20;34.73;99057.95;2171565;82;20982;-79
2021/05/29 13:17:47;;;;;;;2.33;1.17;;;;;;;18.52;34.12;99045.58;2171887;82;21069;-79
2021/05/29 13:20:48;;;;;;;1.75;1.45;;;;;;;18.39;34.34;99059.45;2171926;82;20969;-80
2021/05/29 13:23:49;;;;;;;1.02;0.95;;;;;;;18.14;35.43;99066.84;2171935;82;20982;-81
2021/05/29 13:26:50;;;;;;;1.17;0.95;;;;;;;17.73;36.02;99073.17;2171978;82;20946;-78
2021/05/29 13:29:51;;;;;;;1.60;1.50;;;;;;;17.52;37.05;99070.33;2172199;82;20950;-79
2021/05/29 13:32:52;;;;;;;0.85;0.85;;;;;;;17.38;37.42;99070.94;2171652;82;21033;-80
2021/05/29 13:35:53;;;;;;;3.05;1.65;;;;;;;17.28;38.30;99075.86;2171869;82;21049;-80
2021/05/29 13:38:54;;;;;;;5.65;2.20;;;;;;;17.02;42.86;99098.56;2172046;82;21025;-80
2021/05/29 13:41:55;;;;;;;3.70;2.10;;;;;;;16.60;44.56;99087.94;2171652;80;21481;-80
2021/05/29 13:44:56;;;;;;;3.83;2.30;;;;;;;16.42;44.95;99087.17;2171799;82;20978;-80
2021/05/29 13:47:57;;;;;;;4.58;2.50;;;;;;;16.25;45.58;99087.30;2172223;82;20982;-80
2021/05/29 13:50:58;;;;;;;3.12;2.45;;;;;;;16.21;46.46;99096.55;2171881;82;21008;-79
2021/05/29 13:53:59;;;;;;;3.22;2.00;;;;;;;16.17;46.50;99098.77;2172072;82;21084;-79
2021/05/29 13:57:00;;;;;;;4.00;2.58;;;;;;;16.07;48.10;99106.30;2172033;82;20978;-79
2021/05/29 14:00:01;;;;;;;3.75;2.50;;;;;;;16.07;48.10;99106.30;2172078;82;20958;-79
2021/05/29 14:03:02;;;;;;;5.03;2.55;;;;;;;15.92;48.19;99105.94;2172100;82;20938;-79
2021/05/29 14:06:03;;;;;;;2.22;1.98;;;;;;;15.99;49.18;99105.47;2171940;82;21350;-80
2021/05/29 14:09:04;;;;;;;7.53;3.98;;;;;;;15.90;49.98;99101.13;2172008;82;21409;-79
2021/05/29 14:12:05;;;;;;;3.12;2.83;;;;;;;15.88;50.44;99107.72;2171867;80;21111;-79
2021/05/29 14:15:06;;;;;;;2.80;2.33;;;;;;;16.05;49.99;99101.48;2171922;82;21362;-80
2021/05/29 14:18:07;;;;;;;6.22;4.42;;;;;;;16.09;49.52;99106.72;2172091;82;21097;-81
2021/05/29 14:21:08;;;;;;;8.80;6.05;;;;;;;16.08;48.82;99102.78;2172130;82;20965;-80